createdAt,value
2023-02-14T00:09:23.995Z,103862.34
2023-02-14T00:19:45.424Z,103850.81
2023-02-14T00:30:08.127Z,103840.88
2023-02-14T00:40:29.514Z,103838.81
2023-02-14T00:50:50.880Z,103820.81
2023-02-14T01:01:13.017Z,103839.19
2023-02-14T01:11:34.551Z,103848.41
2023-02-14T01:21:56.070Z,103834.25
2023-02-14T01:32:17.536Z,103835.09
2023-02-14T01:42:39.022Z,103828.06
2023-02-14T01:53:04.517Z,103822.13
2023-02-14T02:03:28.921Z,103810.00
2023-02-14T02:13:50.322Z,103807.19
2023-02-14T02:24:17.598Z,103802.72
2023-02-14T02:34:57.773Z,103787.00
2023-02-14T02:45:31.357Z,103787.47
2023-02-14T02:56:17.932Z,103785.63
2023-02-14T03:06:39.274Z,103783.06
2023-02-14T03:17:03.657Z,103761.88
2023-02-14T03:27:45.235Z,103762.81
2023-02-14T03:38:15.216Z,103752.63
2023-02-14T03:48:37.798Z,103741.47
2023-02-14T03:59:02.313Z,103737.97
2023-02-14T04:09:23.825Z,103726.88
2023-02-14T04:19:45.786Z,103732.84
2023-02-14T04:30:07.501Z,103726.72
2023-02-14T04:40:29.069Z,103719.09
2023-02-14T04:50:53.830Z,103720.59
2023-02-14T05:01:15.322Z,103710.16
2023-02-14T05:11:36.689Z,103712.53
2023-02-14T05:21:58.024Z,103696.81
2023-02-14T05:32:19.386Z,103683.75
2023-02-14T05:42:40.747Z,103681.84
2023-02-14T05:53:02.208Z,103673.06
2023-02-14T06:03:23.563Z,103679.81
2023-02-14T06:13:44.903Z,103684.69
2023-02-14T06:24:06.262Z,103694.78
2023-02-14T06:34:27.625Z,103695.47
2023-02-14T06:44:48.978Z,103704.88
2023-02-14T06:55:12.165Z,103703.03
2023-02-14T07:05:33.822Z,103702.09
2023-02-14T07:15:55.342Z,103697.78
2023-02-14T07:26:18.183Z,103687.78
2023-02-14T07:36:39.803Z,103681.19
2023-02-14T07:47:01.197Z,103686.56
2023-02-14T07:57:22.594Z,103676.56
2023-02-14T08:07:44.277Z,103680.06
2023-02-14T08:18:05.685Z,103692.22
2023-02-14T08:28:27.502Z,103691.69
2023-02-14T08:38:49.205Z,103687.81
2023-02-14T08:49:10.953Z,103686.53
2023-02-14T08:59:32.329Z,103692.19
2023-02-14T09:09:53.687Z,103679.66
2023-02-14T09:20:15.655Z,103674.69
2023-02-14T09:30:37.092Z,103677.25
2023-02-14T09:40:58.763Z,103677.66
2023-02-14T09:51:23.268Z,103681.84
2023-02-14T10:02:03.662Z,103691.94
2023-02-14T10:12:37.277Z,103684.63
2023-02-14T10:23:01.747Z,103681.03
2023-02-14T10:33:28.546Z,103663.66
2023-02-14T10:43:52.965Z,103657.13
2023-02-14T10:54:22.497Z,103662.13
2023-02-14T11:04:46.747Z,103650.75
2023-02-14T11:15:09.702Z,103633.75
2023-02-14T11:25:31.634Z,103616.09
2023-02-14T11:35:53.555Z,103600.69
2023-02-14T11:46:21.061Z,103590.22
2023-02-14T11:57:02.750Z,103566.75
2023-02-14T12:07:44.120Z,103554.44
2023-02-14T12:18:22.607Z,103541.78
2023-02-14T12:28:47.557Z,103522.69
2023-02-14T12:39:15.854Z,103506.22
2023-02-14T12:49:43.383Z,103495.56
2023-02-14T13:00:17.488Z,103476.81
2023-02-14T13:10:45.076Z,103470.94
2023-02-14T13:21:08.332Z,103465.13
2023-02-14T13:31:30.887Z,103440.34
2023-02-14T13:41:52.321Z,103426.69
2023-02-14T13:52:13.879Z,103421.69
2023-02-14T14:02:43.128Z,103404.84
2023-02-14T14:13:07.048Z,103398.97
2023-02-14T14:23:33.212Z,103394.81
2023-02-14T14:33:58.806Z,103383.94
2023-02-14T14:44:20.348Z,103372.91
2023-02-14T14:54:41.760Z,103368.69
2023-02-14T15:05:17.257Z,103365.38
2023-02-14T15:15:38.899Z,103354.22
2023-02-14T15:26:00.838Z,103342.13
2023-02-14T15:36:25.200Z,103326.53
2023-02-14T15:46:47.180Z,103323.06
2023-02-14T15:57:18.370Z,103324.56
2023-02-14T16:07:40.155Z,103319.25
2023-02-14T16:18:06.954Z,103322.50
2023-02-14T16:28:33.594Z,103321.41
2023-02-14T16:38:55.579Z,103333.22
2023-02-14T16:49:16.942Z,103338.13
2023-02-14T16:59:38.293Z,103344.81
2023-02-14T17:10:02.104Z,103336.84
2023-02-14T17:20:24.355Z,103324.56
2023-02-14T17:30:45.889Z,103320.00
2023-02-14T17:41:18.648Z,103317.28
2023-02-14T17:51:40.031Z,103315.34
2023-02-14T18:02:01.410Z,103320.09
2023-02-14T18:12:22.836Z,103331.84
2023-02-14T18:22:45.985Z,103325.69
2023-02-14T18:33:07.424Z,103323.72
2023-02-14T18:43:28.782Z,103315.81
2023-02-14T18:53:54.389Z,103311.97
2023-02-14T19:04:17.623Z,103310.59
2023-02-14T19:14:38.963Z,103311.19
2023-02-14T19:25:00.318Z,103301.44
2023-02-14T19:35:21.724Z,103279.50
2023-02-14T19:45:43.167Z,103282.75
2023-02-14T19:56:04.617Z,103268.72
2023-02-14T20:06:27.304Z,103258.03
2023-02-14T20:16:49.113Z,103233.88
2023-02-14T20:27:10.593Z,103229.31
2023-02-14T20:37:32.034Z,103229.09
2023-02-14T20:47:53.684Z,103223.50
2023-02-14T20:58:15.112Z,103225.16
2023-02-14T21:08:36.507Z,103216.09
2023-02-14T21:19:01.382Z,103219.25
2023-02-14T21:29:22.925Z,103224.25
2023-02-14T21:39:46.203Z,103213.75
2023-02-14T21:50:26.359Z,103219.56
2023-02-14T22:00:48.085Z,103206.50
2023-02-14T22:11:11.009Z,103204.41
2023-02-14T22:21:33.470Z,103199.09
2023-02-14T22:31:54.936Z,103201.38
2023-02-14T22:42:16.351Z,103194.47
2023-02-14T22:52:38.416Z,103191.56
2023-02-14T23:02:59.857Z,103188.75
2023-02-14T23:13:40.053Z,103183.53
2023-02-14T23:24:01.402Z,103172.16
2023-02-14T23:34:27.080Z,103167.63
2023-02-14T23:44:49.069Z,103155.53
2023-02-14T23:55:11.201Z,103153.84
